Time;durP1;ratioP1;P1;durP2;ratioP2;P2;SDS_P1;SDS_P2;PMS_P1;PMS_P2;Temp;Humidity;BMP_temperature;BMP_pressure;BME280_temperature;BME280_humidity;BME280_pressure;Samples;Min_cycle;Max_cycle;Signal;HPM_P1;HPM_P2
2022/06/07 00:00:21;;;;;;;9.47;4.87;;;;;;;-143.84;83.36;45094.78;5051163;28;20917;-70
2022/06/07 00:02:50;;;;;;;5.57;4.07;;;;;;;-143.84;83.43;45079.53;5051093;28;20504;-70
2022/06/07 00:05:17;;;;;;;15.33;4.13;;;;;;;-143.84;83.59;45085.25;5050830;28;20446;-70
2022/06/07 00:07:44;;;;;;;4.50;4.20;;;;;;;-143.84;83.78;45090.97;5050976;28;20449;-70
2022/06/07 00:10:12;;;;;;;4.87;4.50;;;;;;;-143.84;83.75;45083.34;5051307;28;20434;-70
2022/06/07 00:12:40;;;;;;;5.53;3.97;;;;;;;-143.84;84.15;45071.91;5050728;28;20453;-70
2022/06/07 00:15:09;;;;;;;6.60;4.67;;;;;;;-143.84;84.21;45071.91;5050431;28;21084;-70
2022/06/07 00:17:36;;;;;;;6.67;3.93;;;;;;;-143.84;84.32;45102.38;5050715;28;20437;-70
2022/06/07 00:20:07;;;;;;;5.37;3.90;;;;;;;-143.84;84.46;45090.97;5050533;28;20511;-70
2022/06/07 00:22:35;;;;;;;8.57;4.60;;;;;;;-143.84;84.50;45125.22;5050535;28;20464;-70
2022/06/07 00:25:03;;;;;;;7.27;4.80;;;;;;;-143.84;84.51;45083.34;5050243;28;20539;-70
2022/06/07 00:27:30;;;;;;;4.40;4.03;;;;;;;-143.84;84.63;45073.81;5050441;28;20441;-70
2022/06/07 00:29:58;;;;;;;6.40;4.17;;;;;;;-143.84;84.67;45052.88;5050255;28;20458;-69
2022/06/07 00:32:25;;;;;;;4.20;3.80;;;;;;;-143.84;84.74;45098.56;5050185;28;20547;-70
2022/06/07 00:34:53;;;;;;;6.30;4.20;;;;;;;-143.84;84.66;45071.91;5050265;28;20527;-70
2022/06/07 00:37:22;;;;;;;17.07;4.70;;;;;;;-143.84;84.86;45066.22;5050253;28;20514;-70
2022/06/07 00:39:49;;;;;;;5.13;4.60;;;;;;;-143.84;84.94;45098.56;5049793;28;20544;-70
2022/06/07 00:42:16;;;;;;;6.13;4.43;;;;;;;-143.84;84.71;45073.81;5050323;28;20445;-70
2022/06/07 00:44:46;;;;;;;4.70;4.30;;;;;;;-143.84;84.66;45064.31;5049803;28;20488;-70
2022/06/07 00:47:16;;;;;;;7.00;4.23;;;;;;;-143.84;84.60;45064.31;5050089;28;20442;-70
2022/06/07 00:49:48;;;;;;;4.73;4.30;;;;;;;-143.84;84.16;45106.19;5042275;28;20463;-70
2022/06/07 00:52:16;;;;;;;4.90;4.47;;;;;;;-143.84;84.11;45104.28;5035230;28;20503;-70
2022/06/07 00:54:45;;;;;;;4.20;3.90;;;;;;;-143.84;84.06;45083.34;5039662;28;20536;-70
2022/06/07 00:57:12;;;;;;;4.60;4.20;;;;;;;-143.84;83.79;45085.25;5030067;28;21070;-69
2022/06/07 00:59:39;;;;;;;4.07;3.67;;;;;;;-143.84;83.72;45098.56;5030258;28;20446;-70
2022/06/07 01:02:07;;;;;;;13.10;4.03;;;;;;;-143.84;83.61;45085.25;5030342;28;20786;-70
2022/06/07 01:04:35;;;;;;;3.77;3.37;;;;;;;-143.84;83.28;45102.38;5018155;28;20445;-70
2022/06/07 01:12:33;;;;;;;3.40;3.20;;;;;;;-143.84;82.92;45081.44;5049840;28;20421;-70
2022/06/07 01:15:01;;;;;;;4.40;3.40;;;;;;;-143.84;82.87;45106.19;5049188;28;20562;-70
2022/06/07 01:17:28;;;;;;;5.10;4.00;;;;;;;-143.84;82.78;45077.63;5048938;28;20497;-70
2022/06/07 01:19:56;;;;;;;3.50;3.20;;;;;;;-143.84;82.57;45102.38;5048955;28;20446;-69
2022/06/07 01:22:25;;;;;;;4.10;3.77;;;;;;;-143.84;82.41;45098.56;5049864;28;20434;-69
2022/06/07 01:24:53;;;;;;;4.97;3.63;;;;;;;-143.84;82.35;45110.00;5049328;28;21014;-69
2022/06/07 01:27:21;;;;;;;8.30;3.40;;;;;;;-143.84;82.38;45106.19;5049311;28;20541;-73
2022/06/07 01:29:49;;;;;;;3.53;3.23;;;;;;;-143.84;82.35;45108.09;5049878;28;20503;-74
2022/06/07 01:32:16;;;;;;;4.53;4.23;;;;;;;-143.84;82.27;45089.06;5049332;28;20442;-73
2022/06/07 01:34:45;;;;;;;3.70;3.40;;;;;;;-143.84;82.11;45100.47;5048753;28;20485;-74
2022/06/07 01:37:14;;;;;;;4.50;4.10;;;;;;;-143.84;82.62;45071.91;5049101;28;21033;-73
2022/06/07 01:42:31;;;;;;;3.83;3.53;;;;;;;-143.84;82.73;45089.06;5030801;28;20970;-73
2022/06/07 01:44:58;;;;;;;4.07;3.70;;;;;;;-143.84;82.50;45085.25;5027629;28;20458;-74
2022/06/07 01:47:27;;;;;;;4.33;3.70;;;;;;;-143.84;82.53;45073.81;5028832;28;20439;-74
2022/06/07 01:49:54;;;;;;;4.03;3.73;;;;;;;-143.84;82.61;45075.72;5028537;28;20553;-74
2022/06/07 01:52:24;;;;;;;3.40;3.20;;;;;;;-143.84;82.25;45081.44;5028894;28;21206;-73
2022/06/07 01:54:53;;;;;;;4.40;3.63;;;;;;;-143.84;82.21;45096.66;5027526;28;20564;-73
2022/06/07 01:57:21;;;;;;;3.33;3.13;;;;;;;-143.84;82.34;45106.19;5027251;28;20455;-73
2022/06/07 01:59:48;;;;;;;7.43;3.40;;;;;;;-143.84;70.84;45068.13;5027800;28;20504;-74
2022/06/07 02:02:15;;;;;;;4.20;3.60;;;;;;;-143.84;68.69;45050.97;5028023;28;20443;-74
2022/06/07 02:04:44;;;;;;;5.17;3.73;;;;;;;-143.84;68.52;45068.13;5028660;28;20477;-73
2022/06/07 02:07:12;;;;;;;3.60;3.10;;;;;;;-143.84;68.55;45064.31;5028688;28;20438;-69
2022/06/07 02:09:39;;;;;;;6.93;2.70;;;;;;;-143.84;69.67;45039.53;5028533;28;20449;-69
2022/06/07 02:12:08;;;;;;;5.10;4.00;;;;;;;-143.84;71.01;45050.97;5028720;28;20435;-69
2022/06/07 02:14:36;;;;;;;5.73;3.20;;;;;;;-143.84;72.13;45079.53;5028803;28;20561;-69
2022/06/07 02:17:03;;;;;;;3.73;3.43;;;;;;;-143.84;71.66;45045.25;5028799;28;20446;-69
2022/06/07 02:19:30;;;;;;;4.63;3.70;;;;;;;-143.84;70.29;45056.69;5028881;28;21010;-69
2022/06/07 02:21:58;;;;;;;3.53;3.20;;;;;;;-143.84;71.25;45054.78;5028853;28;20967;-69
2022/06/07 02:24:26;;;;;;;3.70;3.50;;;;;;;-143.84;72.01;45047.16;5028335;28;20462;-69
2022/06/07 02:26:57;;;;;;;3.43;3.23;;;;;;;-143.84;71.57;45049.06;5028525;28;20496;-69
2022/06/07 02:29:31;;;;;;;4.50;2.80;;;;;;;-143.84;70.88;45073.81;5028510;28;20960;-69
2022/06/07 02:32:04;;;;;;;3.50;3.20;;;;;;;-143.84;68.29;45033.84;5028829;28;20854;-69
2022/06/07 02:34:31;;;;;;;4.90;3.60;;;;;;;-143.84;78.35;45079.53;5028675;28;20544;-69
2022/06/07 02:37:02;;;;;;;6.50;2.87;;;;;;;-143.84;80.28;45087.16;5028922;28;20438;-69
2022/06/07 02:39:31;;;;;;;4.10;3.87;;;;;;;-143.84;81.02;45066.22;5028450;28;20439;-69
2022/06/07 02:41:59;;;;;;;3.97;3.67;;;;;;;-143.84;81.13;45106.19;5028504;28;20501;-69
2022/06/07 02:44:27;;;;;;;5.53;3.50;;;;;;;-143.84;81.06;45054.78;5028775;28;20453;-69
2022/06/07 02:46:54;;;;;;;3.83;3.53;;;;;;;-143.84;81.01;45090.97;5028566;28;20878;-69
2022/06/07 02:49:22;;;;;;;4.27;3.00;;;;;;;-143.84;81.39;45058.59;5028583;28;20523;-69
2022/06/07 02:51:49;;;;;;;4.10;3.67;;;;;;;-143.84;81.41;45073.81;5028493;28;20500;-69
2022/06/07 02:54:17;;;;;;;2.97;2.77;;;;;;;-143.84;81.22;45077.63;5028272;28;20901;-71
2022/06/07 02:56:44;;;;;;;3.87;3.47;;;;;;;-143.84;81.04;45083.34;5028433;28;20920;-69
2022/06/07 02:59:11;;;;;;;3.87;3.57;;;;;;;-143.84;80.79;45070.00;5028563;28;20500;-69
2022/06/07 03:01:40;;;;;;;3.83;3.17;;;;;;;-143.84;80.74;45094.78;5029373;28;21134;-69
2022/06/07 03:04:07;;;;;;;3.37;3.17;;;;;;;-143.84;80.61;45087.16;5032279;28;20450;-69
2022/06/07 03:06:34;;;;;;;3.87;3.20;;;;;;;-143.84;80.34;45071.91;5032470;28;20438;-69
2022/06/07 03:09:01;;;;;;;3.83;3.40;;;;;;;-143.84;80.33;45081.44;5032408;28;21269;-69
2022/06/07 03:11:28;;;;;;;3.53;3.00;;;;;;;-143.84;79.85;45077.63;5032225;28;20496;-69
2022/06/07 03:13:55;;;;;;;3.90;3.20;;;;;;;-143.84;79.19;45096.66;5031430;28;21028;-71
2022/06/07 03:16:23;;;;;;;4.60;3.33;;;;;;;-143.84;79.45;45083.34;5032014;28;20543;-69
2022/06/07 03:18:51;;;;;;;7.13;3.70;;;;;;;-143.84;79.47;45062.41;5031775;28;20504;-69
2022/06/07 03:21:19;;;;;;;6.17;3.43;;;;;;;-143.84;79.59;45062.41;5031803;28;20940;-70
2022/06/07 03:23:46;;;;;;;6.07;3.30;;;;;;;-143.84;79.71;45092.88;5031596;28;20462;-71
2022/06/07 03:26:14;;;;;;;5.77;2.70;;;;;;;-143.84;79.54;45070.00;5031525;28;20999;-71
2022/06/07 03:28:41;;;;;;;3.90;3.60;;;;;;;-143.84;79.74;45090.97;5031594;28;20447;-68
2022/06/07 03:31:13;;;;;;;4.43;3.07;;;;;;;-143.84;79.51;45094.78;5031535;28;20504;-69
2022/06/07 03:33:41;;;;;;;3.47;3.27;;;;;;;-143.84;79.55;45071.91;5026683;28;20837;-69
2022/06/07 03:36:13;;;;;;;3.47;3.27;;;;;;;-143.84;79.69;45070.00;5026946;28;20479;-70
2022/06/07 03:38:41;;;;;;;4.10;3.70;;;;;;;-143.84;80.02;45071.91;5023290;28;20450;-70
2022/06/07 03:41:09;;;;;;;3.50;3.20;;;;;;;-143.84;79.90;45058.59;5031835;28;20872;-69
2022/06/07 03:43:37;;;;;;;3.03;2.93;;;;;;;-143.84;79.80;45092.88;5031822;28;20474;-69
2022/06/07 03:46:09;;;;;;;6.13;3.70;;;;;;;-143.84;79.68;45070.00;5031861;28;20827;-71
2022/06/07 03:48:36;;;;;;;4.50;3.07;;;;;;;-143.84;79.67;45081.44;5031992;28;20442;-71
2022/06/07 03:51:07;;;;;;;3.63;3.30;;;;;;;-143.84;79.38;45081.44;5032280;28;20439;-71
2022/06/07 03:53:36;;;;;;;4.30;3.63;;;;;;;-143.84;78.98;45081.44;5032081;28;20474;-71
2022/06/07 03:56:04;;;;;;;3.87;3.00;;;;;;;-143.84;78.90;45068.13;5031974;28;20865;-72
2022/06/07 03:58:31;;;;;;;3.30;3.10;;;;;;;-143.84;78.75;45068.13;5032047;28;20435;-71
2022/06/07 04:01:07;;;;;;;3.43;2.77;;;;;;;-143.84;79.05;45060.50;5031770;28;20479;-72
2022/06/07 04:03:35;;;;;;;8.93;2.97;;;;;;;-143.84;79.14;45075.72;5031729;28;21241;-72
2022/06/07 04:06:03;;;;;;;3.20;3.00;;;;;;;-143.84;79.56;45056.69;5032197;28;20439;-71
2022/06/07 04:08:32;;;;;;;3.30;2.97;;;;;;;-143.84;79.91;45090.97;5032513;28;20486;-71
2022/06/07 04:11:02;;;;;;;3.50;3.30;;;;;;;-143.84;79.95;45066.22;5031407;28;20908;-72
2022/06/07 04:13:32;;;;;;;5.57;3.70;;;;;;;-143.84;80.21;45056.69;5030678;28;20446;-72
2022/06/07 04:15:59;;;;;;;3.73;3.33;;;;;;;-143.84;80.25;45075.72;5031949;28;20883;-71
2022/06/07 04:18:26;;;;;;;3.77;3.47;;;;;;;-143.84;80.27;45066.22;5031999;28;20438;-71
2022/06/07 04:20:54;;;;;;;5.53;4.13;;;;;;;-143.84;80.44;45071.91;5031458;28;20948;-71
2022/06/07 04:23:22;;;;;;;11.83;3.73;;;;;;;-143.84;80.14;45106.19;5031272;28;20450;-72
2022/06/07 04:25:49;;;;;;;5.33;4.00;;;;;;;-143.84;80.24;45070.00;5030288;28;20482;-72
2022/06/07 04:28:18;;;;;;;7.60;3.97;;;;;;;-143.84;80.30;45098.56;5030380;28;20944;-72
2022/06/07 04:30:46;;;;;;;3.93;3.43;;;;;;;-143.84;80.02;45089.06;5030519;28;20848;-72
2022/06/07 04:33:15;;;;;;;4.00;3.60;;;;;;;-143.84;79.65;45081.44;5030783;28;20435;-72
2022/06/07 04:42:48;;;;;;;8.03;3.87;;;;;;;-143.84;80.13;45087.16;4995680;28;21058;-72
2022/06/07 04:45:17;;;;;;;4.10;3.80;;;;;;;-143.84;80.06;45090.97;5030894;28;20500;-72
2022/06/07 04:47:46;;;;;;;4.70;3.47;;;;;;;-143.84;80.13;45071.91;5030558;28;20844;-72
2022/06/07 04:50:15;;;;;;;6.03;2.93;;;;;;;-143.84;79.44;45064.31;5030573;28;20442;-72
2022/06/07 04:52:43;;;;;;;3.90;3.60;;;;;;;-143.84;79.22;45081.44;5030304;28;20493;-71
2022/06/07 04:55:10;;;;;;;4.10;3.70;;;;;;;-143.84;79.01;45079.53;5030051;28;20536;-71
2022/06/07 04:57:37;;;;;;;3.60;3.40;;;;;;;-143.84;79.14;45094.78;5030152;28;20454;-71
2022/06/07 05:00:07;;;;;;;4.47;4.07;;;;;;;-143.84;78.91;45077.63;5029676;28;20454;-71
2022/06/07 05:02:36;;;;;;;4.63;3.90;;;;;;;-143.84;79.20;45062.41;5029583;28;21034;-71
2022/06/07 05:05:05;;;;;;;6.90;3.80;;;;;;;-143.84;79.00;45062.41;5029795;28;20435;-71
2022/06/07 05:07:32;;;;;;;8.10;3.60;;;;;;;-143.84;79.09;45083.34;5030056;28;20449;-71
2022/06/07 05:10:00;;;;;;;3.80;3.60;;;;;;;-143.84;78.68;45089.06;5029847;28;20442;-71
2022/06/07 05:12:30;;;;;;;4.07;3.70;;;;;;;-143.84;78.82;45073.81;5029395;28;20462;-71
2022/06/07 05:14:57;;;;;;;4.47;4.17;;;;;;;-143.84;78.53;45087.16;5029732;28;20546;-71
2022/06/07 05:17:24;;;;;;;6.43;4.03;;;;;;;-143.84;78.20;45068.13;5029767;28;20439;-71
2022/06/07 05:19:53;;;;;;;4.13;3.80;;;;;;;-143.84;77.54;45083.34;5029493;28;20439;-71
2022/06/07 05:22:20;;;;;;;4.37;3.97;;;;;;;-143.84;77.01;45071.91;5029719;28;20875;-71
2022/06/07 05:24:47;;;;;;;4.87;4.47;;;;;;;-143.84;77.60;45073.81;5029702;28;20881;-72
2022/06/07 05:27:17;;;;;;;4.40;4.00;;;;;;;-143.84;77.77;45100.47;5029547;28;20453;-71
2022/06/07 05:29:47;;;;;;;4.53;4.13;;;;;;;-143.84;77.48;45100.47;5029687;28;20443;-71
2022/06/07 05:32:15;;;;;;;5.10;4.10;;;;;;;-143.84;76.99;45073.81;5029175;28;20811;-71
2022/06/07 05:34:42;;;;;;;4.80;4.40;;;;;;;-143.84;76.89;45089.06;5028363;28;20442;-71
2022/06/07 05:37:15;;;;;;;4.80;4.40;;;;;;;-143.84;76.95;45079.53;5028611;28;20478;-73
2022/06/07 05:39:43;;;;;;;4.33;3.90;;;;;;;-143.84;76.97;45071.91;5028949;28;20453;-71
2022/06/07 05:42:12;;;;;;;4.67;4.27;;;;;;;-143.84;76.71;45056.69;5028759;28;20442;-71
2022/06/07 05:44:39;;;;;;;4.17;3.77;;;;;;;-143.84;76.39;45079.53;5029078;28;20526;-71
2022/06/07 05:47:09;;;;;;;5.03;4.50;;;;;;;-143.84;76.25;45068.13;5029596;28;20439;-71
2022/06/07 05:49:37;;;;;;;6.97;3.97;;;;;;;-143.84;76.05;45058.59;5029003;28;20438;-73
2022/06/07 05:52:07;;;;;;;6.40;4.27;;;;;;;-143.84;75.83;45033.84;5029148;28;20481;-71
2022/06/07 05:54:38;;;;;;;5.57;4.10;;;;;;;-143.84;75.09;45079.53;5029501;28;20442;-73
2022/06/07 05:57:06;;;;;;;4.37;3.83;;;;;;;-143.84;74.82;45066.22;5029127;28;20533;-71
2022/06/07 05:59:34;;;;;;;3.80;3.50;;;;;;;-143.84;74.96;45052.88;5029226;28;20435;-71
2022/06/07 06:02:01;;;;;;;7.57;3.60;;;;;;;-143.84;74.87;45090.97;5028451;28;20512;-71
2022/06/07 06:04:28;;;;;;;4.10;3.80;;;;;;;-143.84;74.65;45064.31;5029111;28;20842;-71
2022/06/07 06:06:57;;;;;;;5.80;3.93;;;;;;;-143.84;74.32;45085.25;5029117;28;20438;-74
2022/06/07 06:12:11;;;;;;;4.40;4.00;;;;;;;-143.84;74.24;45054.78;5029412;28;20468;-71
2022/06/07 06:14:38;;;;;;;3.90;3.60;;;;;;;-143.84;73.93;45064.31;5029027;28;20454;-71
2022/06/07 06:17:06;;;;;;;3.60;3.30;;;;;;;-143.84;73.78;45066.22;5028943;28;20470;-71
2022/06/07 06:19:33;;;;;;;4.23;3.80;;;;;;;-143.84;73.42;45062.41;5029021;28;20478;-72
2022/06/07 06:22:01;;;;;;;4.53;3.93;;;;;;;-143.84;73.44;45064.31;5028895;28;20442;-71
2022/06/07 06:24:28;;;;;;;4.40;3.40;;;;;;;-143.84;73.35;45054.78;5028839;28;20454;-71
2022/06/07 06:26:56;;;;;;;5.13;4.27;;;;;;;-143.84;72.68;45070.00;5028888;28;20477;-73
2022/06/07 06:29:26;;;;;;;4.00;3.60;;;;;;;-143.84;72.73;45092.88;5028731;28;20446;-73
2022/06/07 06:31:53;;;;;;;5.23;4.00;;;;;;;-143.84;72.87;45041.44;5028759;28;20458;-73
2022/06/07 06:34:21;;;;;;;3.70;3.40;;;;;;;-143.84;73.24;45075.72;5028825;28;20457;-73
2022/06/07 06:36:49;;;;;;;4.03;3.73;;;;;;;-143.84;73.21;45071.91;5029806;28;20474;-73
2022/06/07 06:39:16;;;;;;;3.53;3.30;;;;;;;-143.84;73.25;45060.50;5032600;28;20539;-72
2022/06/07 06:41:45;;;;;;;4.23;3.83;;;;;;;-143.84;72.33;45050.97;5033150;28;20807;-74
2022/06/07 06:44:13;;;;;;;4.93;3.57;;;;;;;-143.84;73.50;45079.53;5032793;28;20446;-73
2022/06/07 06:46:44;;;;;;;5.10;3.63;;;;;;;-143.84;74.00;45060.50;5032643;28;20529;-74
2022/06/07 06:49:12;;;;;;;8.93;4.10;;;;;;;-143.84;73.33;45054.78;5033355;28;20442;-74
2022/06/07 06:51:41;;;;;;;3.50;3.20;;;;;;;-143.84;72.82;45083.34;5032611;28;20537;-74
2022/06/07 06:54:09;;;;;;;16.70;3.60;;;;;;;-143.84;74.11;45030.03;5032513;28;20450;-74
2022/06/07 06:56:36;;;;;;;19.87;4.10;;;;;;;-143.84;74.07;45052.88;5032750;28;20898;-74
2022/06/07 06:59:03;;;;;;;4.23;3.83;;;;;;;-143.84;72.68;45054.78;5032458;28;20499;-74
2022/06/07 07:01:33;;;;;;;4.50;3.60;;;;;;;-143.84;71.09;45045.25;5032358;28;20508;-74
2022/06/07 07:04:06;;;;;;;3.60;3.30;;;;;;;-143.84;70.81;45056.69;5032266;28;20434;-74
2022/06/07 07:06:33;;;;;;;5.10;4.07;;;;;;;-143.84;70.52;45056.69;5032557;28;20454;-74
2022/06/07 07:09:01;;;;;;;8.00;3.87;;;;;;;-143.84;69.61;45047.16;5032355;28;20445;-74
2022/06/07 07:11:30;;;;;;;3.90;3.60;;;;;;;-143.84;70.50;45050.97;5032393;28;20453;-73
2022/06/07 07:13:59;;;;;;;3.93;3.03;;;;;;;-143.84;70.39;45075.72;5032490;28;20445;-74
2022/06/07 07:16:29;;;;;;;5.23;3.37;;;;;;;-143.84;69.01;45054.78;5032071;28;20483;-74
2022/06/07 07:18:56;;;;;;;3.90;3.70;;;;;;;-143.84;68.78;45058.59;5032651;28;20442;-73
2022/06/07 07:21:27;;;;;;;3.30;3.00;;;;;;;-143.84;69.07;45052.88;5032320;28;20431;-74
2022/06/07 07:23:55;;;;;;;6.80;3.30;;;;;;;-143.84;69.31;45073.81;5032100;28;20948;-74
2022/06/07 07:26:25;;;;;;;7.03;3.70;;;;;;;-143.84;69.79;45037.66;5031771;28;20470;-74
2022/06/07 07:28:53;;;;;;;4.73;3.63;;;;;;;-143.84;71.11;45071.91;5031516;28;20489;-74
2022/06/07 07:31:23;;;;;;;4.47;3.97;;;;;;;-143.84;72.46;45056.69;5031852;28;20787;-74
2022/06/07 07:33:51;;;;;;;5.93;3.67;;;;;;;-143.84;73.81;45062.41;5031816;28;20461;-74
2022/06/07 07:36:18;;;;;;;5.10;3.87;;;;;;;-143.84;73.94;45060.50;5031733;28;20474;-74
2022/06/07 07:38:47;;;;;;;5.87;3.70;;;;;;;-143.84;73.52;45047.16;5031861;28;20442;-74
2022/06/07 07:41:20;;;;;;;7.23;4.10;;;;;;;-143.84;73.90;45079.53;5031908;28;20439;-72
2022/06/07 07:43:49;;;;;;;4.17;3.70;;;;;;;-143.84;74.49;45056.69;5031386;28;20443;-73
2022/06/07 07:46:17;;;;;;;4.30;3.90;;;;;;;-143.84;75.41;45033.84;5031698;28;20529;-74
2022/06/07 07:48:44;;;;;;;4.07;3.77;;;;;;;-143.84;74.63;45068.13;5030428;28;20446;-73
2022/06/07 07:51:28;;;;;;;3.70;3.50;;;;;;;-143.84;74.18;45064.31;5031536;28;20940;-72
2022/06/07 07:53:59;;;;;;;5.10;3.73;;;;;;;-143.84;74.88;45049.06;5031612;28;20829;-72
2022/06/07 07:56:27;;;;;;;8.30;4.47;;;;;;;-143.84;75.22;45062.41;5031738;28;20560;-73
2022/06/07 07:58:56;;;;;;;4.23;3.87;;;;;;;-143.84;74.81;45054.78;5031474;28;20447;-74
2022/06/07 08:01:25;;;;;;;4.40;4.10;;;;;;;-143.84;74.87;45049.06;5031626;28;20933;-73
2022/06/07 08:03:53;;;;;;;5.27;4.17;;;;;;;-143.84;75.41;45062.41;5031545;28;20982;-72
2022/06/07 08:06:23;;;;;;;4.07;3.77;;;;;;;-143.84;73.93;45058.59;5031294;28;20466;-73
2022/06/07 08:08:53;;;;;;;4.37;3.73;;;;;;;-143.84;72.59;45070.00;5031325;28;20447;-72
2022/06/07 08:11:26;;;;;;;6.50;4.27;;;;;;;-143.84;72.33;45047.16;5031420;28;20447;-72
2022/06/07 08:13:54;;;;;;;5.63;4.20;;;;;;;-143.84;72.54;45047.16;5030936;28;20442;-73
2022/06/07 08:16:21;;;;;;;5.07;4.07;;;;;;;-143.84;72.76;45064.31;5031200;28;20493;-74
2022/06/07 08:18:48;;;;;;;4.57;3.90;;;;;;;-143.84;73.20;45056.69;5031116;28;20998;-73
2022/06/07 08:21:20;;;;;;;4.70;4.30;;;;;;;-143.84;72.38;45066.22;5031216;28;21081;-74
2022/06/07 08:23:48;;;;;;;4.80;4.20;;;;;;;-143.84;74.08;45064.31;5031345;28;20805;-74
2022/06/07 08:26:16;;;;;;;5.43;4.60;;;;;;;-143.84;73.92;45068.13;5030874;28;20483;-74
2022/06/07 08:28:45;;;;;;;4.67;4.33;;;;;;;-143.84;75.24;45108.09;5030983;28;20526;-74
2022/06/07 08:31:13;;;;;;;4.80;4.20;;;;;;;-143.84;76.32;45058.59;5030778;28;21325;-74
2022/06/07 08:39:11;;;;;;;4.20;3.83;;;;;;;-143.84;77.26;45054.78;5030836;28;20449;-73
2022/06/07 08:41:45;;;;;;;4.43;4.03;;;;;;;-143.84;76.85;45062.41;5030544;28;20443;-74
2022/06/07 08:44:20;;;;;;;8.53;5.17;;;;;;;-143.84;76.75;45050.97;5030838;28;20446;-73
2022/06/07 08:46:47;;;;;;;5.20;4.33;;;;;;;-143.84;76.47;45050.97;5030729;28;20456;-74
2022/06/07 08:49:14;;;;;;;4.70;4.30;;;;;;;-143.84;76.43;45045.25;5030637;28;20438;-73
2022/06/07 08:51:59;;;;;;;4.07;3.77;;;;;;;-143.84;77.12;45041.44;5030778;28;20812;-73
2022/06/07 08:54:30;;;;;;;3.87;3.57;;;;;;;-143.84;77.33;45049.06;5030925;28;20439;-73
2022/06/07 08:57:10;;;;;;;9.50;3.50;;;;;;;-143.84;76.58;45054.78;5030042;28;20482;-74
2022/06/07 08:59:39;;;;;;;3.07;2.80;;;;;;;-143.84;76.67;45073.81;5030491;28;20793;-73
2022/06/07 09:02:20;;;;;;;7.13;4.17;;;;;;;-143.84;75.37;45052.88;5030298;28;20500;-74
2022/06/07 09:04:47;;;;;;;3.87;3.43;;;;;;;-143.84;75.86;45066.22;5030308;28;20442;-74
2022/06/07 09:07:17;;;;;;;4.57;3.27;;;;;;;-143.84;76.44;45045.25;5030228;28;20504;-74
2022/06/07 09:12:33;;;;;;;4.37;3.17;;;;;;;-143.84;75.81;45064.31;5029977;28;20426;-73
2022/06/07 09:15:09;;;;;;;3.50;2.50;;;;;;;-143.84;75.03;45018.59;5029858;28;20447;-73
2022/06/07 09:17:39;;;;;;;4.10;2.90;;;;;;;-143.84;74.44;45031.94;5029925;28;20494;-72
2022/06/07 09:20:14;;;;;;;3.80;2.80;;;;;;;-143.84;73.77;45037.66;5029935;28;20446;-72
2022/06/07 09:22:52;;;;;;;4.37;2.80;;;;;;;-143.84;73.47;45041.44;5029803;28;20624;-73
2022/06/07 09:25:25;;;;;;;3.67;2.90;;;;;;;-143.84;71.29;45007.19;5029350;28;20490;-73
2022/06/07 09:27:53;;;;;;;2.20;2.10;;;;;;;-143.84;72.80;45035.75;5029582;28;20442;-72
2022/06/07 09:30:25;;;;;;;3.27;2.87;;;;;;;-143.84;72.73;45062.41;5029395;28;20449;-71
2022/06/07 09:32:53;;;;;;;4.70;3.03;;;;;;;-143.84;73.88;45026.22;5029738;28;20457;-72
2022/06/07 09:35:24;;;;;;;3.23;2.87;;;;;;;-143.84;71.08;45049.06;5029816;28;20492;-71
2022/06/07 09:37:56;;;;;;;11.17;4.00;;;;;;;-143.84;70.50;45026.22;5029729;28;20474;-71
2022/06/07 09:40:28;;;;;;;6.77;2.90;;;;;;;-143.84;71.64;45030.03;5029334;28;21250;-71
2022/06/07 09:43:02;;;;;;;2.73;2.53;;;;;;;-143.84;70.83;45052.88;5029611;28;20434;-71
2022/06/07 09:45:36;;;;;;;3.20;2.77;;;;;;;-143.84;71.41;45030.03;5029737;28;20457;-72
2022/06/07 09:48:19;;;;;;;3.37;3.13;;;;;;;-143.84;72.25;45024.31;5030001;28;20434;-72
2022/06/07 09:50:55;;;;;;;2.90;2.63;;;;;;;-143.84;70.17;45024.31;5029183;28;20717;-72
2022/06/07 09:53:22;;;;;;;5.97;2.93;;;;;;;-143.84;68.35;45054.78;5028538;28;20458;-72
2022/06/07 09:56:04;;;;;;;3.13;2.93;;;;;;;-143.84;69.22;45010.97;5028348;28;20960;-72
2022/06/07 09:58:49;;;;;;;3.23;2.47;;;;;;;-143.84;68.58;45043.34;5028783;28;20474;-72
2022/06/07 10:01:24;;;;;;;3.87;3.10;;;;;;;-143.84;68.70;45024.31;5028600;28;20873;-71
2022/06/07 10:03:56;;;;;;;5.60;2.80;;;;;;;-143.84;67.21;45056.69;5028541;28;20453;-73
2022/06/07 10:06:27;;;;;;;2.83;2.63;;;;;;;-143.84;67.31;45024.31;5029001;28;20472;-72
2022/06/07 10:09:28;;;;;;;5.17;2.97;;;;;;;-143.84;68.50;45020.50;5028758;28;20534;-72
2022/06/07 10:12:06;;;;;;;3.30;2.70;;;;;;;-143.84;67.67;45018.59;5029316;28;20466;-72
2022/06/07 10:14:43;;;;;;;5.73;2.83;;;;;;;-143.84;66.22;45014.78;5029743;28;20434;-72
2022/06/07 10:17:38;;;;;;;3.33;3.03;;;;;;;-143.84;67.13;45030.03;5029195;28;20516;-72
2022/06/07 10:20:16;;;;;;;5.50;3.10;;;;;;;-143.84;67.18;45033.84;5031323;28;20439;-72
2022/06/07 10:23:18;;;;;;;4.90;3.07;;;;;;;-143.84;68.30;45037.66;5028320;28;20504;-72
2022/06/07 10:25:59;;;;;;;3.50;2.80;;;;;;;-143.84;69.59;45039.53;5027819;28;20485;-72
2022/06/07 10:28:32;;;;;;;3.63;3.33;;;;;;;-143.84;69.71;45049.06;5028873;28;20454;-72
2022/06/07 10:31:05;;;;;;;3.73;3.30;;;;;;;-143.84;68.93;45014.78;5028945;28;20509;-72
2022/06/07 10:33:55;;;;;;;3.20;2.90;;;;;;;-143.84;67.70;45039.53;5028966;28;20533;-72
2022/06/07 10:36:33;;;;;;;3.60;3.30;;;;;;;-143.84;67.29;45035.75;5028963;28;20565;-72
2022/06/07 10:39:17;;;;;;;5.30;3.50;;;;;;;-143.84;67.79;45018.59;5028523;28;20453;-72
2022/06/07 10:41:51;;;;;;;5.57;3.30;;;;;;;-143.84;67.71;45024.31;5028898;28;20443;-72
2022/06/07 10:44:29;;;;;;;4.23;3.40;;;;;;;-143.84;67.35;45054.78;5029125;28;20426;-72
2022/06/07 10:46:58;;;;;;;5.83;3.40;;;;;;;-143.84;68.04;45018.59;5028629;28;20450;-72
2022/06/07 10:49:33;;;;;;;6.17;3.50;;;;;;;-143.84;68.51;45028.13;5028514;28;20438;-72
2022/06/07 10:55:03;;;;;;;4.33;3.40;;;;;;;-143.84;67.66;45028.13;5026414;28;20441;-73
2022/06/07 10:57:37;;;;;;;5.93;3.33;;;;;;;-143.84;68.91;45039.53;5028517;28;20485;-72
2022/06/07 11:00:19;;;;;;;4.30;3.37;;;;;;;-143.84;69.92;45047.16;5028711;28;20455;-72
2022/06/07 11:02:53;;;;;;;8.80;3.70;;;;;;;-143.84;70.92;45035.75;5028597;28;20435;-72
2022/06/07 11:11:06;;;;;;;3.13;2.93;;;;;;;-143.84;69.66;45016.69;5028660;28;20542;-73
2022/06/07 11:13:51;;;;;;;4.60;3.20;;;;;;;-143.84;69.00;45045.25;5028367;28;20442;-73
2022/06/07 11:16:27;;;;;;;4.13;3.13;;;;;;;-143.84;68.49;45020.50;5028621;28;20504;-72
2022/06/07 11:18:54;;;;;;;3.23;2.67;;;;;;;-143.84;67.72;45037.66;5028135;28;20466;-73
2022/06/07 11:21:30;;;;;;;4.43;3.17;;;;;;;-143.84;68.24;45039.53;5028225;28;20439;-73
2022/06/07 11:24:06;;;;;;;4.20;3.23;;;;;;;-143.84;67.70;45026.22;5031418;28;20519;-72
2022/06/07 11:27:17;;;;;;;5.63;2.60;;;;;;;-143.84;66.70;45031.94;5031680;28;20480;-72
2022/06/07 11:29:47;;;;;;;7.17;3.20;;;;;;;-143.84;67.17;45031.94;5031874;28;20450;-73
2022/06/07 11:32:42;;;;;;;6.20;2.80;;;;;;;-143.84;65.93;45010.97;5031747;28;20461;-73
2022/06/07 11:35:51;;;;;;;4.00;2.90;;;;;;;-143.84;67.69;45026.22;5031593;28;20919;-73
2022/06/07 11:38:28;;;;;;;3.30;3.00;;;;;;;-143.84;67.21;45014.78;5031552;28;20493;-73
2022/06/07 11:44:01;;;;;;;6.80;3.60;;;;;;;-143.84;65.92;45020.50;5030566;28;20500;-73
2022/06/07 11:46:40;;;;;;;2.97;2.83;;;;;;;-143.84;63.80;44988.13;5029687;28;20576;-73
2022/06/07 11:49:49;;;;;;;10.60;3.63;;;;;;;-143.84;63.54;44982.41;5031537;28;20540;-73
2022/06/07 11:52:24;;;;;;;4.23;2.77;;;;;;;-143.84;62.17;45012.88;5025691;28;20455;-73
2022/06/07 11:54:55;;;;;;;4.33;2.70;;;;;;;-143.84;62.54;45009.09;5031249;28;20453;-73
2022/06/07 11:57:30;;;;;;;5.83;3.07;;;;;;;-143.84;61.47;44991.94;5031004;28;20485;-73
2022/06/07 12:00:00;;;;;;;3.30;3.00;;;;;;;-143.84;62.60;44995.75;5017059;28;20529;-73
2022/06/07 12:02:32;;;;;;;5.67;3.13;;;;;;;-143.84;63.62;45047.16;5011495;28;20459;-72
2022/06/07 12:05:26;;;;;;;4.47;3.13;;;;;;;-143.84;63.92;45010.97;5011463;28;20528;-72
2022/06/07 12:08:00;;;;;;;5.17;2.97;;;;;;;-143.84;63.94;45028.13;5011581;28;20960;-72
2022/06/07 12:10:32;;;;;;;5.83;3.57;;;;;;;-143.84;64.81;45003.38;5011339;28;20463;-73